Time;durP1;ratioP1;P1;durP2;ratioP2;P2;SDS_P1;SDS_P2;PMS_P1;PMS_P2;Temp;Humidity;BMP_temperature;BMP_pressure;BME280_temperature;BME280_humidity;BME280_pressure;Samples;Min_cycle;Max_cycle;Signal;HPM_P1;HPM_P2
2022/03/06 00:01:55;;;;;;;7.68;4.63;;;;;;;0.59;88.44;102664.19;5051988;28;20044;-70
2022/03/06 00:04:20;;;;;;;9.80;5.82;;;;;;;0.68;89.12;102676.06;5046104;28;20029;-70
2022/03/06 00:06:46;;;;;;;9.45;4.45;;;;;;;0.72;88.28;102682.91;5048821;28;20429;-72
2022/03/06 00:09:11;;;;;;;8.82;3.92;;;;;;;0.77;88.02;102683.59;5031893;28;20425;-70
2022/03/06 00:11:36;;;;;;;5.40;3.90;;;;;;;0.80;88.08;102680.91;5049345;28;20425;-70
2022/03/06 00:14:02;;;;;;;6.18;3.70;;;;;;;0.82;87.95;102680.88;5049310;28;20119;-70
2022/03/06 00:16:27;;;;;;;5.43;3.25;;;;;;;0.83;87.70;102682.59;5049834;28;20091;-70
2022/03/06 00:18:53;;;;;;;6.00;4.15;;;;;;;0.84;87.56;102678.25;5050338;28;20029;-70
2022/03/06 00:21:18;;;;;;;8.38;4.32;;;;;;;0.84;87.68;102684.28;5050349;28;20059;-70
2022/03/06 00:23:44;;;;;;;5.75;3.65;;;;;;;0.82;86.95;102675.69;5033184;28;20079;-70
2022/03/06 00:26:09;;;;;;;6.00;3.75;;;;;;;0.84;87.45;102680.84;5053815;28;20078;-70
2022/03/06 00:28:35;;;;;;;6.55;4.22;;;;;;;0.86;87.38;102673.88;5067355;28;20383;-71
2022/03/06 00:31:01;;;;;;;5.75;3.70;;;;;;;0.89;86.72;102679.81;5055576;28;20033;-70
2022/03/06 00:33:26;;;;;;;8.52;3.50;;;;;;;0.87;86.34;102675.56;5033002;28;20048;-70
2022/03/06 00:35:51;;;;;;;7.28;4.68;;;;;;;0.87;86.73;102680.75;5057524;28;20472;-70
2022/03/06 00:38:17;;;;;;;7.90;3.75;;;;;;;0.85;87.04;102687.75;5057276;28;20036;-70
2022/03/06 00:40:44;;;;;;;4.50;3.28;;;;;;;0.85;87.15;102679.94;5036848;28;20706;-70
2022/03/06 00:43:10;;;;;;;5.40;3.33;;;;;;;0.76;86.48;102663.72;5055021;28;20124;-70
2022/03/06 00:45:36;;;;;;;6.18;3.85;;;;;;;0.77;87.46;102673.22;5062998;28;20060;-70
2022/03/06 00:48:02;;;;;;;5.13;3.42;;;;;;;0.87;87.54;102676.44;5053964;28;20658;-70
2022/03/06 00:50:27;;;;;;;8.00;4.15;;;;;;;0.86;86.94;102684.25;5055468;28;20098;-70
2022/03/06 00:52:52;;;;;;;9.25;3.65;;;;;;;0.86;87.18;102679.06;5059417;28;20029;-70
2022/03/06 00:55:18;;;;;;;7.43;3.67;;;;;;;0.87;87.18;102675.56;5058939;28;20025;-70
2022/03/06 00:57:43;;;;;;;4.50;2.80;;;;;;;0.91;87.43;102682.38;5060848;28;20029;-70
2022/03/06 01:00:09;;;;;;;8.68;4.38;;;;;;;0.90;87.61;102683.28;5053924;28;20039;-70
2022/03/06 01:02:35;;;;;;;6.28;3.70;;;;;;;0.87;87.70;102675.56;5054660;28;20028;-70
2022/03/06 01:05:00;;;;;;;6.95;3.47;;;;;;;0.90;87.63;102684.13;5062423;28;20029;-70
2022/03/06 01:07:25;;;;;;;6.10;3.72;;;;;;;0.84;87.38;102670.44;5055541;28;20124;-69
2022/03/06 01:09:51;;;;;;;6.35;3.97;;;;;;;0.84;87.92;102673.06;5046699;28;20020;-69
2022/03/06 01:12:16;;;;;;;5.75;3.17;;;;;;;0.93;87.77;102696.19;5055584;28;20033;-70
2022/03/06 01:14:43;;;;;;;6.80;4.57;;;;;;;0.91;88.05;102684.97;5055318;28;20091;-70
2022/03/06 01:17:08;;;;;;;6.30;3.55;;;;;;;0.89;87.86;102686.75;5056191;28;20068;-70
2022/03/06 01:19:34;;;;;;;6.72;3.33;;;;;;;0.76;87.67;102668.94;5055862;28;20045;-70
2022/03/06 01:21:59;;;;;;;5.53;3.67;;;;;;;0.84;88.01;102699.91;5054719;28;20091;-70
2022/03/06 01:24:25;;;;;;;5.97;3.17;;;;;;;0.78;88.28;102703.53;5055372;28;20074;-70
2022/03/06 01:26:50;;;;;;;4.30;3.13;;;;;;;0.74;87.99;102688.91;5064173;28;20061;-70
2022/03/06 01:29:16;;;;;;;7.10;3.30;;;;;;;0.79;88.14;102710.41;5061633;28;20472;-70
2022/03/06 01:31:41;;;;;;;6.60;3.00;;;;;;;0.82;88.02;102706.88;5066561;28;20021;-70
2022/03/06 01:34:06;;;;;;;4.70;2.90;;;;;;;0.69;87.62;102692.50;5054985;28;20028;-70
2022/03/06 01:36:32;;;;;;;6.55;3.10;;;;;;;0.70;87.96;102700.28;5055053;28;20141;-69
2022/03/06 01:38:58;;;;;;;3.92;2.60;;;;;;;0.82;87.66;102715.53;5057004;28;20473;-69
2022/03/06 01:41:24;;;;;;;3.72;2.33;;;;;;;0.79;87.27;102700.03;5062528;28;20041;-69
2022/03/06 01:43:49;;;;;;;5.65;3.20;;;;;;;0.90;87.46;102722.28;5063936;28;20025;-69
2022/03/06 01:46:15;;;;;;;6.22;2.97;;;;;;;0.91;87.11;102719.63;5056009;28;20067;-69
2022/03/06 01:48:40;;;;;;;3.80;2.42;;;;;;;0.88;86.47;102716.28;5062428;28;20021;-69
2022/03/06 01:51:06;;;;;;;4.15;2.30;;;;;;;0.89;86.89;102715.38;5056374;28;20378;-70
2022/03/06 01:53:31;;;;;;;3.65;2.58;;;;;;;0.94;86.65;102718.72;5054914;28;20024;-70
2022/03/06 01:55:57;;;;;;;5.13;3.22;;;;;;;0.97;86.11;102718.63;5060409;28;20029;-69
2022/03/06 01:58:22;;;;;;;4.72;3.05;;;;;;;0.91;86.49;102698.81;5057867;28;20028;-70
2022/03/06 02:00:49;;;;;;;7.57;2.67;;;;;;;1.02;86.26;102714.13;5060394;28;20028;-70
2022/03/06 02:03:16;;;;;;;5.28;3.40;;;;;;;0.95;86.42;102705.66;5057026;28;20481;-70
2022/03/06 02:05:43;;;;;;;5.97;2.40;;;;;;;0.93;86.03;102702.22;5058839;28;20415;-70
2022/03/06 02:08:08;;;;;;;5.28;2.55;;;;;;;1.02;86.42;102709.81;5055754;28;20518;-70
2022/03/06 02:10:34;;;;;;;5.07;2.72;;;;;;;0.97;85.93;102697.81;5054643;28;20025;-70
2022/03/06 02:12:59;;;;;;;5.45;2.83;;;;;;;1.06;86.25;102707.09;5056029;28;20041;-70
2022/03/06 02:15:26;;;;;;;6.18;3.42;;;;;;;1.08;86.50;102708.75;5059977;28;20056;-70
2022/03/06 02:17:51;;;;;;;6.40;3.05;;;;;;;1.08;86.79;102710.50;5060465;28;20432;-70
2022/03/06 02:20:22;;;;;;;3.58;2.70;;;;;;;1.08;87.40;102708.75;5055064;28;20035;-70
2022/03/06 02:22:55;;;;;;;6.30;3.60;;;;;;;1.08;87.35;102705.31;5061593;28;20504;-70
2022/03/06 02:25:22;;;;;;;8.63;3.90;;;;;;;1.10;88.31;102706.13;5055442;28;20025;-70
2022/03/06 02:27:49;;;;;;;5.25;3.28;;;;;;;0.95;87.85;102684.84;5059858;28;20028;-70
2022/03/06 02:30:17;;;;;;;4.70;3.33;;;;;;;1.12;88.42;102710.38;5055204;28;20025;-70
2022/03/06 02:32:47;;;;;;;7.18;3.10;;;;;;;1.12;88.39;102712.13;5049660;28;20038;-70
2022/03/06 02:35:13;;;;;;;6.70;3.72;;;;;;;1.05;87.62;102701.06;5057580;28;20029;-70
2022/03/06 02:37:39;;;;;;;8.60;3.30;;;;;;;1.13;88.05;102706.03;5061182;28;20551;-70
2022/03/06 02:40:07;;;;;;;11.88;3.28;;;;;;;1.11;88.53;102703.50;5056416;28;20021;-70
2022/03/06 02:42:35;;;;;;;6.05;3.55;;;;;;;1.09;88.33;102701.81;5056458;28;20554;-70
2022/03/06 02:45:07;;;;;;;5.20;2.70;;;;;;;1.00;87.99;102688.19;5057063;28;20029;-70
2022/03/06 02:47:34;;;;;;;8.20;3.60;;;;;;;1.08;88.44;102703.56;5057641;28;20032;-70
2022/03/06 02:49:59;;;;;;;6.13;3.38;;;;;;;1.08;88.75;102692.31;5056982;28;20025;-70
2022/03/06 02:52:24;;;;;;;9.23;3.75;;;;;;;1.01;88.50;102689.03;5059175;28;20032;-70
2022/03/06 02:54:50;;;;;;;4.75;3.22;;;;;;;1.01;88.80;102699.44;5056279;28;20116;-70
2022/03/06 02:57:15;;;;;;;6.25;3.15;;;;;;;0.94;89.12;102697.91;5055265;28;20384;-70
2022/03/06 02:59:41;;;;;;;4.97;3.28;;;;;;;0.93;89.28;102693.59;5055212;28;20021;-70
2022/03/06 03:02:06;;;;;;;5.25;2.95;;;;;;;0.81;89.68;102693.03;5059262;28;20488;-70
2022/03/06 03:04:33;;;;;;;5.90;3.33;;;;;;;0.84;90.03;102697.28;5056415;28;20031;-70
2022/03/06 03:06:59;;;;;;;5.22;3.08;;;;;;;0.79;90.10;102688.78;5057676;28;20559;-70
2022/03/06 03:09:25;;;;;;;8.30;3.10;;;;;;;0.69;89.97;102692.50;5061131;28;20310;-70
2022/03/06 03:11:52;;;;;;;6.78;3.38;;;;;;;0.69;90.09;102698.56;5055413;28;20028;-70
2022/03/06 03:14:18;;;;;;;5.90;2.83;;;;;;;0.56;90.08;102681.59;5056609;28;20024;-70
2022/03/06 03:16:45;;;;;;;4.72;3.40;;;;;;;0.64;91.05;102700.44;5057862;28;20245;-70
2022/03/06 03:19:10;;;;;;;7.45;3.78;;;;;;;0.55;90.71;102695.47;5056268;28;20498;-70
2022/03/06 03:21:36;;;;;;;8.63;3.75;;;;;;;0.64;90.43;102709.97;5060740;28;20108;-70
2022/03/06 03:24:02;;;;;;;4.35;2.58;;;;;;;0.60;90.87;102704.00;5055833;28;20028;-70
2022/03/06 03:26:28;;;;;;;6.20;3.13;;;;;;;0.47;91.10;102687.03;5053806;28;20092;-70
2022/03/06 03:28:54;;;;;;;7.45;3.15;;;;;;;0.55;90.97;102700.69;5059693;28;20025;-70
2022/03/06 03:31:19;;;;;;;4.97;2.95;;;;;;;0.47;91.12;102705.22;5053635;28;20090;-70
2022/03/06 03:33:45;;;;;;;6.75;3.53;;;;;;;0.42;90.85;102704.47;5057744;28;20427;-70
2022/03/06 03:36:11;;;;;;;6.00;2.85;;;;;;;0.37;90.98;102705.44;5061031;28;20399;-70
2022/03/06 03:38:38;;;;;;;7.57;4.32;;;;;;;0.33;90.96;102711.59;5054818;28;20117;-70
2022/03/06 03:41:04;;;;;;;5.07;3.55;;;;;;;0.32;91.64;102715.06;5058944;28;20056;-70
2022/03/06 03:43:29;;;;;;;8.10;3.30;;;;;;;0.18;91.74;102696.41;5056894;28;20103;-70
2022/03/06 03:45:57;;;;;;;5.20;2.70;;;;;;;0.19;91.94;102700.69;5059012;28;20499;-70
2022/03/06 03:48:28;;;;;;;7.55;3.28;;;;;;;0.22;92.16;102713.63;5059482;28;20032;-71
2022/03/06 03:50:53;;;;;;;4.25;2.78;;;;;;;0.19;92.47;102713.69;5057175;28;20469;-71
2022/03/06 03:53:20;;;;;;;6.15;3.30;;;;;;;0.16;91.96;102713.75;5057767;28;20027;-71
2022/03/06 03:55:46;;;;;;;4.47;3.22;;;;;;;0.15;92.11;102717.22;5057312;28;20458;-71
2022/03/06 03:58:11;;;;;;;8.65;3.33;;;;;;;0.02;92.41;102701.09;5058253;28;20516;-70
2022/03/06 04:00:37;;;;;;;6.18;2.85;;;;;;;0.00;92.33;102692.50;5057336;28;20036;-70
2022/03/06 04:03:02;;;;;;;10.32;2.97;;;;;;;0.05;91.81;102721.81;5059004;28;20083;-70
2022/03/06 04:05:28;;;;;;;6.65;2.92;;;;;;;0.07;92.36;102729.56;5056513;28;20058;-72
2022/03/06 04:07:53;;;;;;;5.97;3.45;;;;;;;-0.09;91.84;102701.34;5061452;28;20477;-70
2022/03/06 04:10:19;;;;;;;4.85;2.83;;;;;;;0.00;92.04;102718.47;5060449;28;20070;-70
2022/03/06 04:12:45;;;;;;;6.25;3.55;;;;;;;-0.07;92.17;102716.88;5063950;28;20051;-69
2022/03/06 04:15:10;;;;;;;5.95;2.72;;;;;;;-0.02;92.02;102728.88;5062632;28;20040;-69
2022/03/06 04:17:35;;;;;;;4.07;2.47;;;;;;;-0.03;92.01;102734.94;5063686;28;20025;-72
2022/03/06 04:20:02;;;;;;;6.38;3.35;;;;;;;-0.09;92.08;102729.03;5058905;28;20036;-70
2022/03/06 04:22:27;;;;;;;4.10;2.78;;;;;;;-0.14;91.67;102726.56;5062095;28;20130;-69
2022/03/06 04:24:53;;;;;;;5.15;2.40;;;;;;;-0.15;92.07;102726.59;5063469;28;20115;-70
2022/03/06 04:27:18;;;;;;;5.15;2.40;;;;;;;-0.12;91.70;102739.50;5060401;28;20055;-69
2022/03/06 04:29:44;;;;;;;5.70;2.30;;;;;;;-0.15;91.58;102743.03;5063084;28;20013;-69
2022/03/06 04:32:09;;;;;;;6.20;2.85;;;;;;;-0.18;91.57;102744.81;5062247;28;20086;-69
2022/03/06 04:34:36;;;;;;;6.97;2.65;;;;;;;-0.25;91.78;102741.53;5063434;28;20028;-69
2022/03/06 04:37:01;;;;;;;3.95;2.50;;;;;;;-0.29;91.96;102751.09;5060658;28;20032;-70
2022/03/06 04:39:27;;;;;;;4.45;2.45;;;;;;;-0.27;91.76;102745.88;5059317;28;20025;-70
2022/03/06 04:41:52;;;;;;;4.65;2.60;;;;;;;-0.28;91.78;102746.78;5044605;28;20382;-70
2022/03/06 04:44:17;;;;;;;4.00;2.47;;;;;;;-0.34;91.90;102728.75;5060120;28;20027;-70
2022/03/06 04:46:43;;;;;;;5.60;2.40;;;;;;;-0.37;92.24;102740.06;5064099;28;20115;-70
2022/03/06 04:49:08;;;;;;;6.35;3.22;;;;;;;-0.36;91.75;102740.91;5060678;28;20020;-70
2022/03/06 04:51:34;;;;;;;4.47;2.28;;;;;;;-0.30;91.84;102751.16;5062683;28;20092;-70
2022/03/06 04:53:59;;;;;;;5.40;2.60;;;;;;;-0.33;91.72;102751.19;5060061;28;20119;-70
2022/03/06 04:56:25;;;;;;;4.22;2.60;;;;;;;-0.45;91.55;102742.78;5060293;28;20119;-70
2022/03/06 04:58:50;;;;;;;3.40;2.10;;;;;;;-0.36;91.50;102756.47;5063027;28;20017;-70
2022/03/06 05:01:16;;;;;;;3.80;2.55;;;;;;;-0.47;91.65;102748.91;5062102;28;20047;-70
2022/03/06 05:03:41;;;;;;;3.65;2.38;;;;;;;-0.44;91.28;102764.41;5058677;28;20031;-70
2022/03/06 05:06:07;;;;;;;5.78;2.33;;;;;;;-0.50;91.76;102759.31;5060897;28;20119;-70
2022/03/06 05:08:32;;;;;;;3.33;2.25;;;;;;;-0.55;92.21;102756.84;5058339;28;20041;-70
2022/03/06 05:10:57;;;;;;;6.80;2.50;;;;;;;-0.58;92.15;102756.91;5059579;28;20483;-70
2022/03/06 05:13:24;;;;;;;4.15;2.28;;;;;;;-0.58;92.38;102763.84;5062961;28;20036;-70
2022/03/06 05:15:50;;;;;;;5.72;2.92;;;;;;;-0.66;91.91;102751.00;5060563;28;20041;-70
2022/03/06 05:18:15;;;;;;;5.20;2.20;;;;;;;-0.59;92.55;102759.53;5061438;28;20096;-70
2022/03/06 05:20:41;;;;;;;6.47;2.55;;;;;;;-0.61;92.71;102756.94;5058093;28;20075;-71
2022/03/06 05:23:06;;;;;;;4.13;2.20;;;;;;;-0.67;92.30;102759.69;5061435;28;20552;-71
2022/03/06 05:25:32;;;;;;;7.07;2.92;;;;;;;-0.66;92.30;102769.16;5044903;28;20452;-70
2022/03/06 05:27:57;;;;;;;5.68;2.28;;;;;;;-0.67;92.30;102767.47;5057117;28;20032;-70
2022/03/06 05:30:23;;;;;;;2.08;1.73;;;;;;;-0.69;92.42;102764.91;5062087;28;20031;-70
2022/03/06 05:32:48;;;;;;;2.47;2.15;;;;;;;-0.71;92.23;102771.00;5061371;28;20443;-70
2022/03/06 05:35:14;;;;;;;5.40;2.67;;;;;;;-0.74;92.05;102779.72;5059583;28;20034;-70
2022/03/06 05:37:39;;;;;;;3.65;2.08;;;;;;;-0.79;92.35;102772.88;5060533;28;20123;-70
2022/03/06 05:40:06;;;;;;;3.88;2.05;;;;;;;-0.81;92.11;102777.25;5061927;28;20025;-70
2022/03/06 05:42:31;;;;;;;3.60;2.13;;;;;;;-0.85;91.88;102779.91;5058517;28;20091;-70
2022/03/06 05:44:57;;;;;;;2.72;2.40;;;;;;;-0.85;91.31;102787.69;5060175;28;20028;-70
2022/03/06 05:47:22;;;;;;;2.30;1.75;;;;;;;-0.81;90.10;102788.47;5058530;28;20543;-70
2022/03/06 05:49:48;;;;;;;3.33;1.38;;;;;;;-0.80;88.48;102781.56;5060156;28;20517;-70
2022/03/06 05:52:13;;;;;;;2.75;2.08;;;;;;;-0.90;87.24;102771.34;5060123;28;20082;-70
2022/03/06 05:54:39;;;;;;;2.92;2.00;;;;;;;-0.71;86.50;102796.94;5062323;28;20481;-72
2022/03/06 05:57:06;;;;;;;3.55;2.05;;;;;;;-0.69;85.80;102798.63;5059123;28;20127;-70
2022/03/06 05:59:31;;;;;;;2.35;1.75;;;;;;;-0.67;85.22;102801.19;5061421;28;20471;-70
2022/03/06 06:01:57;;;;;;;2.13;1.40;;;;;;;-0.74;84.80;102810.81;5062098;28;20052;-70
2022/03/06 06:04:22;;;;;;;5.05;1.23;;;;;;;-0.71;83.76;102818.53;5058445;28;20086;-70
2022/03/06 06:06:48;;;;;;;1.70;1.40;;;;;;;-0.69;83.50;102816.75;5060271;28;20029;-70
2022/03/06 06:09:13;;;;;;;2.63;1.50;;;;;;;-0.80;83.26;102797.13;5059815;28;20550;-70
2022/03/06 06:11:38;;;;;;;2.50;1.58;;;;;;;-0.69;82.57;102821.09;5057251;28;20036;-70
2022/03/06 06:14:04;;;;;;;4.13;1.63;;;;;;;-0.66;82.64;102823.63;5061194;28;20024;-70
2022/03/06 06:16:30;;;;;;;2.63;1.60;;;;;;;-0.83;82.47;102803.19;5054600;28;20059;-72
2022/03/06 06:18:56;;;;;;;3.03;1.67;;;;;;;-0.68;82.50;102827.97;5053823;28;20397;-70
2022/03/06 06:21:21;;;;;;;2.67;1.75;;;;;;;-0.71;82.04;102828.06;5058092;28;20043;-70
2022/03/06 06:23:47;;;;;;;2.35;1.52;;;;;;;-0.65;81.77;102820.16;5055587;28;20039;-70
2022/03/06 06:26:12;;;;;;;4.05;1.67;;;;;;;-0.60;81.86;102830.44;5058702;28;20028;-70
2022/03/06 06:28:38;;;;;;;2.42;1.60;;;;;;;-0.63;81.76;102837.41;5036723;28;20119;-70
2022/03/06 06:31:05;;;;;;;2.83;1.52;;;;;;;-0.58;81.63;102828.69;5055656;28;20149;-72
2022/03/06 06:33:31;;;;;;;2.47;2.05;;;;;;;-0.57;81.50;102833.81;5055561;28;20029;-70
2022/03/06 06:35:56;;;;;;;3.00;2.00;;;;;;;-0.51;81.27;102841.50;5054249;28;20527;-70
2022/03/06 06:38:22;;;;;;;2.80;2.00;;;;;;;-0.39;81.70;102848.19;5053986;28;20770;-70
2022/03/06 06:40:51;;;;;;;3.60;2.08;;;;;;;-0.33;81.35;102842.84;5049882;28;20024;-70
2022/03/06 06:43:17;;;;;;;1.98;1.42;;;;;;;-0.25;80.89;102847.91;5054618;28;20082;-70
2022/03/06 06:45:43;;;;;;;2.97;1.73;;;;;;;-0.27;80.70;102828.91;5054382;28;20115;-72
2022/03/06 06:48:08;;;;;;;2.10;1.27;;;;;;;-0.14;80.18;102835.56;5053634;28;20116;-70
2022/03/06 06:50:34;;;;;;;3.05;1.80;;;;;;;0.03;79.57;102844.75;5051935;28;20420;-70
2022/03/06 06:52:59;;;;;;;5.13;1.38;;;;;;;0.10;79.50;102851.50;5049011;28;20032;-72
2022/03/06 06:55:25;;;;;;;3.17;1.52;;;;;;;0.03;79.55;102836.97;5047769;28;20034;-70
2022/03/06 06:57:50;;;;;;;3.58;1.35;;;;;;;0.23;79.46;102847.75;5057966;28;20031;-70
2022/03/06 07:00:16;;;;;;;2.38;1.85;;;;;;;0.33;78.96;102857.06;5054038;28;20033;-70
2022/03/06 07:02:42;;;;;;;3.13;1.52;;;;;;;0.39;78.51;102846.53;5051259;28;20025;-69
2022/03/06 07:05:08;;;;;;;4.63;1.60;;;;;;;0.50;78.92;102848.00;5054006;28;20061;-71
2022/03/06 07:07:33;;;;;;;1.85;1.48;;;;;;;0.58;78.42;102849.53;5053461;28;20037;-71
2022/03/06 07:09:59;;;;;;;5.38;2.15;;;;;;;0.62;77.93;102845.13;5034231;28;20088;-71
2022/03/06 07:12:24;;;;;;;3.60;1.67;;;;;;;0.73;77.19;102850.06;5052491;28;20028;-71
2022/03/06 07:14:50;;;;;;;1.90;1.35;;;;;;;0.76;77.63;102848.28;5054601;28;20055;-71
2022/03/06 07:17:15;;;;;;;2.92;1.80;;;;;;;0.77;76.63;102846.50;5055239;28;20487;-70
2022/03/06 07:19:40;;;;;;;3.35;1.15;;;;;;;0.08;76.88;102732.09;5049303;28;20116;-70
2022/03/06 07:22:06;;;;;;;2.60;1.27;;;;;;;0.82;76.82;102845.50;5052363;28;20063;-70
2022/03/06 07:24:31;;;;;;;2.25;1.50;;;;;;;1.05;76.66;102861.44;5032570;28;20033;-70
2022/03/06 07:26:56;;;;;;;2.22;1.60;;;;;;;1.12;76.34;102858.63;5048728;28;20528;-71
2022/03/06 07:29:22;;;;;;;2.17;1.60;;;;;;;1.22;75.67;102862.69;5047220;28;20130;-71
2022/03/06 07:31:47;;;;;;;2.28;1.40;;;;;;;1.31;76.00;102868.56;5049404;28;20029;-71
2022/03/06 07:34:13;;;;;;;2.70;1.90;;;;;;;1.31;75.72;102863.38;5047051;28;20464;-71
2022/03/06 07:36:38;;;;;;;6.13;1.83;;;;;;;1.35;76.03;102867.56;5050287;28;20064;-71
2022/03/06 07:39:03;;;;;;;1.70;1.15;;;;;;;1.37;75.49;102884.00;5042518;28;20078;-71
2022/03/06 07:41:29;;;;;;;1.30;1.10;;;;;;;1.38;75.09;102872.69;5044916;28;20087;-70
2022/03/06 07:43:54;;;;;;;4.00;1.73;;;;;;;1.41;74.13;102870.00;5048470;28;20098;-70
2022/03/06 07:46:20;;;;;;;2.38;1.50;;;;;;;1.51;74.05;102881.88;5047671;28;20033;-70
2022/03/06 07:48:45;;;;;;;1.23;0.88;;;;;;;1.62;73.70;102874.63;5046511;28;20020;-71
2022/03/06 07:51:11;;;;;;;2.22;1.20;;;;;;;1.74;73.39;102872.56;5049746;28;20025;-70
2022/03/06 07:53:36;;;;;;;2.97;1.77;;;;;;;1.79;73.86;102881.13;5045377;28;20131;-70
2022/03/06 07:56:02;;;;;;;4.40;1.40;;;;;;;1.95;73.89;102871.13;5051052;28;20104;-70
2022/03/06 07:58:27;;;;;;;3.47;1.52;;;;;;;1.89;72.38;102846.09;5048053;28;20035;-70
2022/03/06 08:00:52;;;;;;;2.28;1.77;;;;;;;2.57;73.13;102875.31;5048424;28;20495;-71
2022/03/06 08:03:18;;;;;;;5.53;1.90;;;;;;;2.89;70.22;102872.53;5046265;28;20080;-70
2022/03/06 08:05:44;;;;;;;2.40;1.55;;;;;;;3.45;68.13;102875.88;5045259;28;20429;-71
2022/03/06 08:08:10;;;;;;;2.03;1.40;;;;;;;4.01;67.11;102846.84;5042766;28;20052;-71
2022/03/06 08:10:36;;;;;;;2.05;1.20;;;;;;;4.83;64.35;102878.47;5047549;28;20043;-71
2022/03/06 08:13:01;;;;;;;4.15;1.52;;;;;;;6.35;61.03;102878.81;5049387;28;20126;-70
2022/03/06 08:15:26;;;;;;;2.90;1.55;;;;;;;6.67;57.40;102892.19;5046193;28;20056;-70
2022/03/06 08:17:52;;;;;;;4.25;1.20;;;;;;;6.82;56.78;102882.72;5041412;28;20516;-71
2022/03/06 08:20:17;;;;;;;6.07;1.50;;;;;;;7.90;53.93;102880.66;5043397;28;20507;-71
2022/03/06 08:22:43;;;;;;;2.28;1.52;;;;;;;7.72;53.16;102879.84;5045259;28;20114;-71
2022/03/06 08:25:09;;;;;;;2.63;1.73;;;;;;;8.61;53.19;102883.75;5046443;28;20116;-72
2022/03/06 08:27:34;;;;;;;3.75;1.70;;;;;;;7.58;50.36;102891.09;5049541;28;20059;-71
2022/03/06 08:30:01;;;;;;;2.88;1.60;;;;;;;8.34;52.75;102901.03;5047690;28;20470;-71
2022/03/06 08:32:26;;;;;;;3.70;1.25;;;;;;;7.20;50.54;102902.63;5047171;28;20021;-73
2022/03/06 08:34:52;;;;;;;4.80;1.42;;;;;;;7.24;52.68;102913.84;5050694;28;20029;-71
2022/03/06 08:37:20;;;;;;;2.08;1.40;;;;;;;7.95;54.21;102902.31;5048035;28;20021;-71
2022/03/06 08:39:47;;;;;;;5.05;1.38;;;;;;;8.57;48.78;102908.53;5047622;28;20040;-72
2022/03/06 08:42:12;;;;;;;2.85;1.25;;;;;;;9.73;47.08;102909.69;5035057;28;20425;-72
2022/03/06 08:44:38;;;;;;;5.15;1.30;;;;;;;9.41;47.68;102902.78;5040926;28;20036;-72
2022/03/06 08:47:04;;;;;;;2.42;1.40;;;;;;;10.11;46.09;102914.38;5043193;28;20025;-72
2022/03/06 08:49:29;;;;;;;2.38;1.52;;;;;;;8.93;47.99;102910.00;5046554;28;20040;-71
2022/03/06 08:51:54;;;;;;;4.95;1.80;;;;;;;9.81;46.96;102912.69;5048753;28;20033;-72
2022/03/06 08:54:21;;;;;;;2.50;1.10;;;;;;;9.64;46.98;102911.09;5054136;28;20029;-72
2022/03/06 08:56:46;;;;;;;2.15;1.10;;;;;;;9.35;46.11;102913.69;5055336;28;20024;-71
2022/03/06 08:59:12;;;;;;;3.42;1.30;;;;;;;9.14;49.11;102901.78;5040894;28;20036;-71
2022/03/06 09:01:37;;;;;;;2.33;1.10;;;;;;;7.57;48.01;102897.28;5057454;28;20117;-73
2022/03/06 09:04:03;;;;;;;2.47;1.33;;;;;;;7.55;53.11;102938.53;5057573;28;20033;-71
2022/03/06 09:06:28;;;;;;;2.15;1.00;;;;;;;7.91;50.32;102929.69;5055308;28;20134;-71
2022/03/06 09:08:53;;;;;;;3.05;1.60;;;;;;;8.82;50.57;102936.13;5052069;28;20032;-71
2022/03/06 09:11:19;;;;;;;2.35;1.08;;;;;;;9.23;47.61;102931.09;5052768;28;20104;-71
2022/03/06 09:13:44;;;;;;;3.30;1.63;;;;;;;9.71;48.40;102935.28;5048167;28;20043;-72
2022/03/06 09:16:10;;;;;;;3.47;1.10;;;;;;;8.00;48.11;102929.19;5034602;28;20562;-71
2022/03/06 09:18:35;;;;;;;2.25;1.20;;;;;;;8.37;48.52;102929.81;5031623;28;20063;-72
2022/03/06 09:21:01;;;;;;;3.00;1.50;;;;;;;8.04;48.43;102936.00;5041728;28;20047;-72
2022/03/06 09:23:26;;;;;;;4.68;1.52;;;;;;;9.87;49.40;102933.44;5048801;28;20043;-72
2022/03/06 09:25:52;;;;;;;2.10;1.40;;;;;;;9.99;44.54;102926.53;5050541;28;20033;-72
2022/03/06 09:28:17;;;;;;;4.45;1.60;;;;;;;10.59;45.63;102921.00;5052697;28;20017;-72
2022/03/06 09:30:43;;;;;;;2.45;1.40;;;;;;;11.34;41.98;102928.38;5052137;28;20028;-72
2022/03/06 09:33:08;;;;;;;4.20;1.30;;;;;;;11.67;43.88;102929.66;5052763;28;20028;-72
2022/03/06 09:35:34;;;;;;;4.53;1.70;;;;;;;13.88;40.99;102939.06;5055743;28;20040;-72
2022/03/06 09:37:59;;;;;;;2.35;1.55;;;;;;;15.50;38.41;102942.69;5033200;28;20485;-72
2022/03/06 09:40:25;;;;;;;4.35;1.80;;;;;;;15.61;36.48;102946.13;5046183;28;20106;-72
2022/03/06 09:42:50;;;;;;;3.60;1.40;;;;;;;16.73;37.08;102940.72;5049587;28;20492;-72
2022/03/06 09:45:16;;;;;;;2.53;1.30;;;;;;;18.00;35.03;102945.84;5048645;28;20035;-72
2022/03/06 09:47:44;;;;;;;4.40;1.38;;;;;;;18.64;35.10;102936.03;5052665;28;20101;-72
2022/03/06 09:50:11;;;;;;;3.35;1.30;;;;;;;19.03;33.35;102941.09;5039571;28;20385;-72
2022/03/06 09:52:37;;;;;;;3.97;1.40;;;;;;;19.49;32.93;102928.38;5052533;28;20028;-72
2022/03/06 09:55:03;;;;;;;1.95;1.02;;;;;;;19.46;31.76;102948.25;5051794;28;20397;-72
2022/03/06 09:57:29;;;;;;;4.18;1.50;;;;;;;20.00;32.01;102948.06;5051793;28;20028;-72
2022/03/06 09:59:54;;;;;;;3.08;1.40;;;;;;;20.79;31.58;102940.56;5044971;28;20037;-72
2022/03/06 10:02:19;;;;;;;2.78;1.25;;;;;;;20.50;31.33;102955.25;5050968;28;20028;-71
2022/03/06 10:04:50;;;;;;;1.90;1.13;;;;;;;21.30;30.64;102951.97;5048139;28;20029;-71
2022/03/06 10:07:19;;;;;;;2.65;1.17;;;;;;;20.67;30.24;102950.81;5047918;28;20040;-71
2022/03/06 10:09:54;;;;;;;2.72;1.30;;;;;;;20.87;29.72;102937.06;5042608;28;20033;-71
2022/03/06 10:12:26;;;;;;;2.97;1.40;;;;;;;20.89;31.54;102941.25;5047608;28;20041;-71
2022/03/06 10:14:53;;;;;;;3.00;1.38;;;;;;;21.81;29.61;102950.88;5042815;28;20061;-72
2022/03/06 10:17:21;;;;;;;2.65;1.42;;;;;;;21.96;29.50;102946.44;5045913;28;20029;-72
2022/03/06 10:19:49;;;;;;;2.75;1.48;;;;;;;20.06;32.04;102936.72;5039321;28;20033;-72
2022/03/06 10:22:14;;;;;;;2.22;1.30;;;;;;;20.93;32.26;102939.91;5047061;28;20508;-72
2022/03/06 10:24:51;;;;;;;3.72;1.67;;;;;;;21.41;30.85;102941.88;5047148;28;20048;-72
2022/03/06 10:27:36;;;;;;;3.75;1.48;;;;;;;21.20;30.67;102940.56;5048629;28;20043;-72
2022/03/06 10:30:20;;;;;;;2.55;1.30;;;;;;;22.08;29.16;102944.19;5047392;28;20040;-72
2022/03/06 10:32:46;;;;;;;3.53;1.55;;;;;;;20.13;30.48;102943.09;5050282;28;20527;-72
2022/03/06 10:35:11;;;;;;;4.68;1.58;;;;;;;20.90;31.52;102934.84;5045574;28;20043;-72
2022/03/06 10:37:37;;;;;;;4.15;1.70;;;;;;;22.27;29.90;102934.88;5044694;28;20052;-72
2022/03/06 10:40:03;;;;;;;3.85;1.33;;;;;;;21.78;29.50;102931.38;5046108;28;20029;-72
2022/03/06 10:42:28;;;;;;;3.38;1.40;;;;;;;21.65;30.67;102933.78;5044799;28;20040;-72
2022/03/06 10:44:53;;;;;;;4.30;1.48;;;;;;;22.42;29.10;102941.16;5047478;28;20081;-72
2022/03/06 10:47:19;;;;;;;3.88;1.48;;;;;;;22.37;29.28;102925.56;5041220;28;20548;-72
2022/03/06 10:50:03;;;;;;;2.25;1.40;;;;;;;22.17;29.40;102938.59;5023424;28;20037;-72
2022/03/06 10:52:29;;;;;;;2.58;1.38;;;;;;;23.08;29.05;102935.31;5049071;28;20066;-72
2022/03/06 10:54:57;;;;;;;3.63;1.60;;;;;;;23.90;29.45;102940.66;5049582;28;20080;-72
2022/03/06 10:57:24;;;;;;;4.25;1.63;;;;;;;23.13;28.49;102943.69;5045956;28;20029;-72
2022/03/06 10:59:50;;;;;;;4.40;1.63;;;;;;;22.39;29.06;102939.69;5040684;28;20044;-72
2022/03/06 11:02:17;;;;;;;3.63;1.55;;;;;;;22.41;29.52;102944.03;5042387;28;20028;-72
2022/03/06 11:04:46;;;;;;;2.47;1.23;;;;;;;21.35;30.81;102940.72;5049170;28;20082;-72
2022/03/06 11:07:12;;;;;;;4.82;2.00;;;;;;;20.21;30.65;102942.28;5048140;28;20504;-72
2022/03/06 11:09:38;;;;;;;3.30;1.55;;;;;;;20.16;32.28;102943.78;5044041;28;20122;-72
2022/03/06 11:12:05;;;;;;;3.13;1.60;;;;;;;20.51;31.86;102929.28;5044342;28;20505;-72
2022/03/06 11:14:32;;;;;;;3.45;1.52;;;;;;;20.46;32.19;102937.81;5043555;28;20025;-72
2022/03/06 11:16:57;;;;;;;2.92;1.45;;;;;;;19.43;32.56;102926.31;5046662;28;20059;-72
2022/03/06 11:19:25;;;;;;;2.75;1.45;;;;;;;19.06;34.42;102938.13;5043938;28;20021;-72
2022/03/06 11:22:00;;;;;;;4.07;1.70;;;;;;;18.06;34.43;102919.38;5038961;28;20110;-71
2022/03/06 11:24:28;;;;;;;3.42;1.60;;;;;;;17.62;36.35;102929.81;5041127;28;20032;-72